sensor_id;sensor_type;location;lat;lon;timestamp;P1;durP1;ratioP1;P2;durP2;ratioP2
48791;SDS011;34587;48.816;9.420;2024-01-10T00:00:36;31.02;;;9.40;;
48791;SDS011;34587;48.816;9.420;2024-01-10T00:03:02;22.70;;;8.75;;
48791;SDS011;34587;48.816;9.420;2024-01-10T00:05:28;23.48;;;9.45;;
48791;SDS011;34587;48.816;9.420;2024-01-10T00:07:53;19.20;;;8.43;;
48791;SDS011;34587;48.816;9.420;2024-01-10T00:10:19;24.13;;;8.90;;
48791;SDS011;34587;48.816;9.420;2024-01-10T00:12:44;20.02;;;9.00;;
48791;SDS011;34587;48.816;9.420;2024-01-10T00:15:10;17.13;;;8.38;;
48791;SDS011;34587;48.816;9.420;2024-01-10T00:17:35;25.92;;;9.48;;
48791;SDS011;34587;48.816;9.420;2024-01-10T00:20:00;21.00;;;9.00;;
48791;SDS011;34587;48.816;9.420;2024-01-10T00:22:26;22.48;;;9.23;;
48791;SDS011;34587;48.816;9.420;2024-01-10T00:24:51;27.13;;;10.32;;
48791;SDS011;34587;48.816;9.420;2024-01-10T00:27:16;21.75;;;8.93;;
48791;SDS011;34587;48.816;9.420;2024-01-10T00:29:42;23.40;;;9.02;;
48791;SDS011;34587;48.816;9.420;2024-01-10T00:32:07;20.17;;;8.50;;
48791;SDS011;34587;48.816;9.420;2024-01-10T00:34:33;27.05;;;9.63;;
48791;SDS011;34587;48.816;9.420;2024-01-10T00:36:58;18.08;;;8.18;;
48791;SDS011;34587;48.816;9.420;2024-01-10T00:39:23;18.23;;;7.53;;
48791;SDS011;34587;48.816;9.420;2024-01-10T00:41:49;19.15;;;8.35;;
48791;SDS011;34587;48.816;9.420;2024-01-10T00:44:14;22.58;;;8.30;;
48791;SDS011;34587;48.816;9.420;2024-01-10T00:46:39;18.05;;;7.68;;
48791;SDS011;34587;48.816;9.420;2024-01-10T00:49:04;22.08;;;7.72;;
48791;SDS011;34587;48.816;9.420;2024-01-10T00:51:30;19.00;;;8.98;;
48791;SDS011;34587;48.816;9.420;2024-01-10T00:53:55;17.25;;;7.88;;
48791;SDS011;34587;48.816;9.420;2024-01-10T00:56:20;20.38;;;8.52;;
48791;SDS011;34587;48.816;9.420;2024-01-10T00:58:45;15.52;;;7.47;;
48791;SDS011;34587;48.816;9.420;2024-01-10T05:16:01;15.02;;;6.82;;
48791;SDS011;34587;48.816;9.420;2024-01-10T05:18:26;19.13;;;7.85;;
48791;SDS011;34587;48.816;9.420;2024-01-10T05:20:51;13.23;;;6.93;;
48791;SDS011;34587;48.816;9.420;2024-01-10T05:23:17;14.95;;;7.15;;
48791;SDS011;34587;48.816;9.420;2024-01-10T05:25:42;21.08;;;7.93;;
48791;SDS011;34587;48.816;9.420;2024-01-10T05:28:08;19.15;;;8.02;;
48791;SDS011;34587;48.816;9.420;2024-01-10T05:30:33;17.25;;;7.57;;
48791;SDS011;34587;48.816;9.420;2024-01-10T05:32:58;18.65;;;7.25;;
48791;SDS011;34587;48.816;9.420;2024-01-10T05:35:24;15.55;;;7.13;;
48791;SDS011;34587;48.816;9.420;2024-01-10T05:37:51;16.98;;;7.68;;
48791;SDS011;34587;48.816;9.420;2024-01-10T05:40:16;16.23;;;7.70;;
48791;SDS011;34587;48.816;9.420;2024-01-10T05:42:42;27.88;;;8.40;;
48791;SDS011;34587;48.816;9.420;2024-01-10T05:45:07;16.02;;;7.55;;
48791;SDS011;34587;48.816;9.420;2024-01-10T05:47:33;20.13;;;8.32;;
48791;SDS011;34587;48.816;9.420;2024-01-10T05:49:58;14.23;;;7.50;;
48791;SDS011;34587;48.816;9.420;2024-01-10T05:52:23;19.73;;;7.45;;
48791;SDS011;34587;48.816;9.420;2024-01-10T05:54:48;21.33;;;7.65;;
48791;SDS011;34587;48.816;9.420;2024-01-10T05:57:14;15.30;;;7.18;;
48791;SDS011;34587;48.816;9.420;2024-01-10T05:59:40;15.73;;;7.30;;
48791;SDS011;34587;48.816;9.420;2024-01-10T06:02:06;26.98;;;8.38;;
48791;SDS011;34587;48.816;9.420;2024-01-10T06:04:31;19.20;;;7.95;;
48791;SDS011;34587;48.816;9.420;2024-01-10T06:06:57;16.42;;;7.72;;
48791;SDS011;34587;48.816;9.420;2024-01-10T06:09:23;16.08;;;8.50;;
48791;SDS011;34587;48.816;9.420;2024-01-10T06:11:48;20.05;;;7.25;;
48791;SDS011;34587;48.816;9.420;2024-01-10T06:14:14;17.77;;;7.32;;
48791;SDS011;34587;48.816;9.420;2024-01-10T06:16:39;16.20;;;7.45;;
48791;SDS011;34587;48.816;9.420;2024-01-10T06:19:05;21.98;;;7.57;;
48791;SDS011;34587;48.816;9.420;2024-01-10T06:21:31;20.48;;;6.35;;
48791;SDS011;34587;48.816;9.420;2024-01-10T06:23:56;20.70;;;7.53;;
48791;SDS011;34587;48.816;9.420;2024-01-10T06:26:21;18.75;;;7.60;;
48791;SDS011;34587;48.816;9.420;2024-01-10T06:28:47;19.17;;;8.45;;
48791;SDS011;34587;48.816;9.420;2024-01-10T06:31:12;21.88;;;7.97;;
48791;SDS011;34587;48.816;9.420;2024-01-10T06:33:38;21.88;;;7.72;;
48791;SDS011;34587;48.816;9.420;2024-01-10T06:36:03;20.15;;;8.18;;
48791;SDS011;34587;48.816;9.420;2024-01-10T06:38:28;16.35;;;7.40;;
48791;SDS011;34587;48.816;9.420;2024-01-10T06:40:54;24.80;;;7.40;;
48791;SDS011;34587;48.816;9.420;2024-01-10T06:43:19;20.42;;;9.02;;
48791;SDS011;34587;48.816;9.420;2024-01-10T06:45:44;15.75;;;6.93;;
48791;SDS011;34587;48.816;9.420;2024-01-10T06:48:10;21.23;;;7.93;;
48791;SDS011;34587;48.816;9.420;2024-01-10T06:50:35;18.27;;;7.88;;
48791;SDS011;34587;48.816;9.420;2024-01-10T06:53:01;17.52;;;8.30;;
48791;SDS011;34587;48.816;9.420;2024-01-10T06:55:27;20.73;;;8.13;;
48791;SDS011;34587;48.816;9.420;2024-01-10T06:57:54;19.88;;;7.72;;
48791;SDS011;34587;48.816;9.420;2024-01-10T07:00:20;19.85;;;8.25;;
48791;SDS011;34587;48.816;9.420;2024-01-10T07:02:46;17.38;;;7.93;;
48791;SDS011;34587;48.816;9.420;2024-01-10T07:05:11;39.70;;;9.32;;
48791;SDS011;34587;48.816;9.420;2024-01-10T07:07:37;17.90;;;7.80;;
48791;SDS011;34587;48.816;9.420;2024-01-10T07:10:02;23.85;;;6.85;;
48791;SDS011;34587;48.816;9.420;2024-01-10T07:12:31;32.72;;;8.55;;
48791;SDS011;34587;48.816;9.420;2024-01-10T07:15:00;26.17;;;9.18;;
48791;SDS011;34587;48.816;9.420;2024-01-10T07:17:25;20.48;;;7.82;;
48791;SDS011;34587;48.816;9.420;2024-01-10T07:19:50;18.05;;;7.63;;
48791;SDS011;34587;48.816;9.420;2024-01-10T07:22:16;18.55;;;7.35;;
48791;SDS011;34587;48.816;9.420;2024-01-10T07:24:43;16.40;;;7.55;;
48791;SDS011;34587;48.816;9.420;2024-01-10T07:27:08;17.92;;;7.45;;
48791;SDS011;34587;48.816;9.420;2024-01-10T07:29:34;19.40;;;7.40;;
48791;SDS011;34587;48.816;9.420;2024-01-10T07:32:00;21.77;;;8.02;;
48791;SDS011;34587;48.816;9.420;2024-01-10T07:34:25;18.70;;;8.15;;
48791;SDS011;34587;48.816;9.420;2024-01-10T07:36:50;27.40;;;8.68;;
48791;SDS011;34587;48.816;9.420;2024-01-10T07:39:16;19.00;;;7.30;;
48791;SDS011;34587;48.816;9.420;2024-01-10T07:41:43;18.85;;;9.65;;
48791;SDS011;34587;48.816;9.420;2024-01-10T07:44:14;15.38;;;7.03;;
48791;SDS011;34587;48.816;9.420;2024-01-10T07:46:40;14.77;;;7.72;;
48791;SDS011;34587;48.816;9.420;2024-01-10T07:49:05;15.48;;;7.28;;
48791;SDS011;34587;48.816;9.420;2024-01-10T07:51:30;20.65;;;8.13;;
48791;SDS011;34587;48.816;9.420;2024-01-10T07:53:57;29.38;;;10.02;;
48791;SDS011;34587;48.816;9.420;2024-01-10T07:56:24;29.33;;;8.60;;
48791;SDS011;34587;48.816;9.420;2024-01-10T07:58:49;23.40;;;9.43;;
48791;SDS011;34587;48.816;9.420;2024-01-10T08:01:14;21.15;;;8.65;;
48791;SDS011;34587;48.816;9.420;2024-01-10T08:03:40;25.02;;;9.52;;
48791;SDS011;34587;48.816;9.420;2024-01-10T08:06:05;20.23;;;8.15;;
48791;SDS011;34587;48.816;9.420;2024-01-10T08:08:31;18.80;;;8.20;;
48791;SDS011;34587;48.816;9.420;2024-01-10T08:10:56;23.70;;;8.20;;
48791;SDS011;34587;48.816;9.420;2024-01-10T08:13:21;25.92;;;8.45;;
48791;SDS011;34587;48.816;9.420;2024-01-10T08:15:47;13.30;;;7.20;;
48791;SDS011;34587;48.816;9.420;2024-01-10T08:18:12;25.50;;;9.57;;
48791;SDS011;34587;48.816;9.420;2024-01-10T08:20:39;22.45;;;8.73;;
48791;SDS011;34587;48.816;9.420;2024-01-10T08:23:04;28.40;;;9.52;;
48791;SDS011;34587;48.816;9.420;2024-01-10T08:25:29;22.17;;;8.48;;
48791;SDS011;34587;48.816;9.420;2024-01-10T08:27:55;21.52;;;8.40;;
48791;SDS011;34587;48.816;9.420;2024-01-10T08:30:21;24.05;;;8.88;;
48791;SDS011;34587;48.816;9.420;2024-01-10T08:32:47;19.38;;;8.38;;
48791;SDS011;34587;48.816;9.420;2024-01-10T08:35:13;23.75;;;8.55;;
48791;SDS011;34587;48.816;9.420;2024-01-10T08:37:38;26.63;;;9.30;;
48791;SDS011;34587;48.816;9.420;2024-01-10T08:40:07;23.42;;;9.18;;
48791;SDS011;34587;48.816;9.420;2024-01-10T08:42:36;23.00;;;9.55;;
48791;SDS011;34587;48.816;9.420;2024-01-10T08:45:03;22.20;;;9.98;;
48791;SDS011;34587;48.816;9.420;2024-01-10T08:47:29;19.45;;;8.73;;
48791;SDS011;34587;48.816;9.420;2024-01-10T08:49:57;26.60;;;10.07;;
48791;SDS011;34587;48.816;9.420;2024-01-10T08:52:22;22.45;;;9.63;;
48791;SDS011;34587;48.816;9.420;2024-01-10T08:54:48;21.67;;;9.55;;
48791;SDS011;34587;48.816;9.420;2024-01-10T08:57:13;34.63;;;11.20;;
48791;SDS011;34587;48.816;9.420;2024-01-10T08:59:40;22.48;;;10.18;;
48791;SDS011;34587;48.816;9.420;2024-01-10T09:02:06;21.05;;;8.70;;
48791;SDS011;34587;48.816;9.420;2024-01-10T09:04:32;31.30;;;10.45;;
48791;SDS011;34587;48.816;9.420;2024-01-10T09:06:57;26.38;;;10.07;;
48791;SDS011;34587;48.816;9.420;2024-01-10T09:09:23;21.27;;;8.75;;
48791;SDS011;34587;48.816;9.420;2024-01-10T09:11:48;24.60;;;9.82;;
48791;SDS011;34587;48.816;9.420;2024-01-10T09:14:14;22.83;;;10.40;;
48791;SDS011;34587;48.816;9.420;2024-01-10T09:16:39;26.38;;;11.55;;
48791;SDS011;34587;48.816;9.420;2024-01-10T09:19:04;24.58;;;10.30;;
48791;SDS011;34587;48.816;9.420;2024-01-10T09:21:30;24.58;;;10.77;;
48791;SDS011;34587;48.816;9.420;2024-01-10T09:23:55;21.00;;;11.02;;
48791;SDS011;34587;48.816;9.420;2024-01-10T09:26:20;22.45;;;11.40;;
48791;SDS011;34587;48.816;9.420;2024-01-10T09:28:46;20.80;;;10.27;;
48791;SDS011;34587;48.816;9.420;2024-01-10T09:31:11;22.63;;;11.52;;
48791;SDS011;34587;48.816;9.420;2024-01-10T09:33:37;20.30;;;10.88;;
48791;SDS011;34587;48.816;9.420;2024-01-10T09:36:02;23.42;;;11.80;;
48791;SDS011;34587;48.816;9.420;2024-01-10T09:38:28;19.13;;;10.88;;
48791;SDS011;34587;48.816;9.420;2024-01-10T09:40:55;27.40;;;11.00;;
48791;SDS011;34587;48.816;9.420;2024-01-10T09:43:26;21.65;;;11.05;;
48791;SDS011;34587;48.816;9.420;2024-01-10T09:45:52;22.83;;;11.32;;
48791;SDS011;34587;48.816;9.420;2024-01-10T09:48:19;21.20;;;11.13;;
48791;SDS011;34587;48.816;9.420;2024-01-10T09:50:45;27.60;;;11.23;;
48791;SDS011;34587;48.816;9.420;2024-01-10T09:53:18;27.80;;;11.60;;
48791;SDS011;34587;48.816;9.420;2024-01-10T09:55:49;23.67;;;11.32;;
48791;SDS011;34587;48.816;9.420;2024-01-10T09:58:15;22.33;;;10.98;;
48791;SDS011;34587;48.816;9.420;2024-01-10T10:00:40;20.75;;;11.07;;
48791;SDS011;34587;48.816;9.420;2024-01-10T10:03:07;20.38;;;11.10;;
48791;SDS011;34587;48.816;9.420;2024-01-10T10:05:36;27.95;;;12.45;;
48791;SDS011;34587;48.816;9.420;2024-01-10T10:08:02;25.65;;;11.27;;
48791;SDS011;34587;48.816;9.420;2024-01-10T10:10:28;21.52;;;11.23;;
48791;SDS011;34587;48.816;9.420;2024-01-10T10:12:53;20.90;;;10.85;;
48791;SDS011;34587;48.816;9.420;2024-01-10T10:15:22;22.45;;;11.75;;
48791;SDS011;34587;48.816;9.420;2024-01-10T10:17:49;24.02;;;11.60;;
48791;SDS011;34587;48.816;9.420;2024-01-10T10:20:21;25.90;;;11.63;;
48791;SDS011;34587;48.816;9.420;2024-01-10T10:22:58;25.25;;;10.57;;
48791;SDS011;34587;48.816;9.420;2024-01-10T10:25:33;26.30;;;12.15;;
48791;SDS011;34587;48.816;9.420;2024-01-10T10:28:00;24.33;;;12.18;;
48791;SDS011;34587;48.816;9.420;2024-01-10T10:30:27;22.40;;;11.00;;
48791;SDS011;34587;48.816;9.420;2024-01-10T10:32:54;29.20;;;12.63;;
48791;SDS011;34587;48.816;9.420;2024-01-10T10:35:20;22.35;;;11.52;;
48791;SDS011;34587;48.816;9.420;2024-01-10T10:37:46;27.85;;;12.07;;
48791;SDS011;34587;48.816;9.420;2024-01-10T10:40:16;24.70;;;11.20;;
48791;SDS011;34587;48.816;9.420;2024-01-10T10:43:04;25.30;;;12.43;;
48791;SDS011;34587;48.816;9.420;2024-01-10T10:45:29;25.60;;;12.55;;
48791;SDS011;34587;48.816;9.420;2024-01-10T10:48:00;30.08;;;11.82;;
48791;SDS011;34587;48.816;9.420;2024-01-10T10:50:28;31.33;;;12.52;;
48791;SDS011;34587;48.816;9.420;2024-01-10T10:52:58;24.38;;;11.75;;
48791;SDS011;34587;48.816;9.420;2024-01-10T10:55:25;22.02;;;11.38;;
48791;SDS011;34587;48.816;9.420;2024-01-10T10:57:51;25.70;;;12.50;;
48791;SDS011;34587;48.816;9.420;2024-01-10T11:00:19;25.08;;;11.93;;
48791;SDS011;34587;48.816;9.420;2024-01-10T11:02:46;25.20;;;12.18;;
48791;SDS011;34587;48.816;9.420;2024-01-10T11:05:12;25.40;;;11.63;;
48791;SDS011;34587;48.816;9.420;2024-01-10T11:07:38;29.00;;;12.13;;
48791;SDS011;34587;48.816;9.420;2024-01-10T11:10:06;25.67;;;12.45;;
48791;SDS011;34587;48.816;9.420;2024-01-10T11:13:13;30.35;;;13.77;;
48791;SDS011;34587;48.816;9.420;2024-01-10T11:24:12;31.77;;;12.43;;
48791;SDS011;34587;48.816;9.420;2024-01-10T11:26:38;24.45;;;12.65;;
48791;SDS011;34587;48.816;9.420;2024-01-10T11:29:04;29.33;;;12.63;;
48791;SDS011;34587;48.816;9.420;2024-01-10T11:31:30;24.88;;;12.10;;
48791;SDS011;34587;48.816;9.420;2024-01-10T11:33:57;26.33;;;11.75;;
48791;SDS011;34587;48.816;9.420;2024-01-10T11:36:23;22.80;;;10.50;;
48791;SDS011;34587;48.816;9.420;2024-01-10T11:49:21;23.67;;;12.32;;
48791;SDS011;34587;48.816;9.420;2024-01-10T11:51:48;31.52;;;13.52;;
48791;SDS011;34587;48.816;9.420;2024-01-10T11:57:02;27.90;;;11.98;;
48791;SDS011;34587;48.816;9.420;2024-01-10T11:59:32;27.10;;;12.23;;
48791;SDS011;34587;48.816;9.420;2024-01-10T12:01:57;23.80;;;12.55;;
48791;SDS011;34587;48.816;9.420;2024-01-10T12:04:23;24.90;;;12.07;;
48791;SDS011;34587;48.816;9.420;2024-01-10T12:06:51;25.30;;;12.85;;
48791;SDS011;34587;48.816;9.420;2024-01-10T12:09:17;27.30;;;12.50;;
48791;SDS011;34587;48.816;9.420;2024-01-10T12:11:42;23.95;;;12.63;;
48791;SDS011;34587;48.816;9.420;2024-01-10T12:14:08;28.40;;;13.00;;
48791;SDS011;34587;48.816;9.420;2024-01-10T12:16:33;24.85;;;12.77;;
48791;SDS011;34587;48.816;9.420;2024-01-10T12:18:59;29.98;;;12.90;;
48791;SDS011;34587;48.816;9.420;2024-01-10T12:21:24;31.02;;;12.85;;
48791;SDS011;34587;48.816;9.420;2024-01-10T12:23:49;26.38;;;13.55;;
48791;SDS011;34587;48.816;9.420;2024-01-10T12:26:16;26.33;;;12.98;;
48791;SDS011;34587;48.816;9.420;2024-01-10T12:28:41;26.35;;;11.95;;
48791;SDS011;34587;48.816;9.420;2024-01-10T12:31:22;28.48;;;12.93;;
48791;SDS011;34587;48.816;9.420;2024-01-10T12:33:50;29.55;;;13.63;;
48791;SDS011;34587;48.816;9.420;2024-01-10T12:36:16;30.35;;;13.48;;
48791;SDS011;34587;48.816;9.420;2024-01-10T12:38:42;28.63;;;12.80;;
48791;SDS011;34587;48.816;9.420;2024-01-10T12:41:09;29.60;;;13.80;;
48791;SDS011;34587;48.816;9.420;2024-01-10T12:43:36;36.20;;;14.15;;
48791;SDS011;34587;48.816;9.420;2024-01-10T12:46:02;30.45;;;13.82;;
48791;SDS011;34587;48.816;9.420;2024-01-10T12:48:31;25.92;;;13.75;;
48791;SDS011;34587;48.816;9.420;2024-01-10T12:50:58;32.45;;;14.25;;
48791;SDS011;34587;48.816;9.420;2024-01-10T12:53:30;30.02;;;13.27;;
48791;SDS011;34587;48.816;9.420;2024-01-10T12:55:56;30.60;;;13.75;;
48791;SDS011;34587;48.816;9.420;2024-01-10T12:58:22;33.67;;;14.05;;
48791;SDS011;34587;48.816;9.420;2024-01-10T13:00:47;30.85;;;14.45;;
48791;SDS011;34587;48.816;9.420;2024-01-10T13:03:13;29.38;;;13.73;;
48791;SDS011;34587;48.816;9.420;2024-01-10T13:05:38;27.55;;;12.48;;
48791;SDS011;34587;48.816;9.420;2024-01-10T13:08:04;30.05;;;13.70;;
48791;SDS011;34587;48.816;9.420;2024-01-10T13:10:30;29.92;;;14.88;;
48791;SDS011;34587;48.816;9.420;2024-01-10T13:12:56;32.35;;;13.23;;
48791;SDS011;34587;48.816;9.420;2024-01-10T13:15:21;32.63;;;14.45;;
48791;SDS011;34587;48.816;9.420;2024-01-10T13:17:46;29.42;;;13.80;;
48791;SDS011;34587;48.816;9.420;2024-01-10T13:20:12;31.30;;;13.63;;
48791;SDS011;34587;48.816;9.420;2024-01-10T13:22:38;32.00;;;13.90;;
48791;SDS011;34587;48.816;9.420;2024-01-10T13:25:03;32.92;;;15.07;;
48791;SDS011;34587;48.816;9.420;2024-01-10T13:27:29;33.70;;;13.10;;
48791;SDS011;34587;48.816;9.420;2024-01-10T13:29:54;34.53;;;14.48;;
48791;SDS011;34587;48.816;9.420;2024-01-10T13:32:20;33.13;;;14.68;;
48791;SDS011;34587;48.816;9.420;2024-01-10T13:34:45;29.73;;;13.70;;
48791;SDS011;34587;48.816;9.420;2024-01-10T13:37:11;35.53;;;14.05;;
48791;SDS011;34587;48.816;9.420;2024-01-10T13:39:37;29.23;;;13.50;;
48791;SDS011;34587;48.816;9.420;2024-01-10T13:42:03;34.03;;;13.45;;
48791;SDS011;34587;48.816;9.420;2024-01-10T13:44:28;28.85;;;13.90;;
48791;SDS011;34587;48.816;9.420;2024-01-10T13:46:53;35.75;;;13.98;;
48791;SDS011;34587;48.816;9.420;2024-01-10T13:49:19;35.75;;;15.68;;
48791;SDS011;34587;48.816;9.420;2024-01-10T13:51:44;29.48;;;13.82;;
48791;SDS011;34587;48.816;9.420;2024-01-10T13:54:10;42.70;;;14.70;;
48791;SDS011;34587;48.816;9.420;2024-01-10T13:56:35;33.50;;;13.90;;
48791;SDS011;34587;48.816;9.420;2024-01-10T13:59:01;28.23;;;12.95;;
48791;SDS011;34587;48.816;9.420;2024-01-10T14:01:26;30.98;;;14.05;;
48791;SDS011;34587;48.816;9.420;2024-01-10T14:03:52;28.55;;;13.90;;
48791;SDS011;34587;48.816;9.420;2024-01-10T14:06:17;37.10;;;13.88;;
48791;SDS011;34587;48.816;9.420;2024-01-10T14:08:42;30.50;;;13.10;;
48791;SDS011;34587;48.816;9.420;2024-01-10T14:11:10;30.20;;;13.07;;
48791;SDS011;34587;48.816;9.420;2024-01-10T14:13:35;30.67;;;13.75;;
48791;SDS011;34587;48.816;9.420;2024-01-10T14:16:01;28.10;;;13.57;;
48791;SDS011;34587;48.816;9.420;2024-01-10T14:18:27;38.95;;;14.10;;
48791;SDS011;34587;48.816;9.420;2024-01-10T14:20:52;33.20;;;13.38;;
48791;SDS011;34587;48.816;9.420;2024-01-10T14:23:17;34.53;;;14.68;;
48791;SDS011;34587;48.816;9.420;2024-01-10T14:25:43;30.00;;;14.20;;
48791;SDS011;34587;48.816;9.420;2024-01-10T14:28:08;32.78;;;14.18;;
48791;SDS011;34587;48.816;9.420;2024-01-10T14:30:33;26.52;;;12.77;;
48791;SDS011;34587;48.816;9.420;2024-01-10T14:32:59;35.75;;;14.25;;
48791;SDS011;34587;48.816;9.420;2024-01-10T14:35:24;31.30;;;13.82;;
48791;SDS011;34587;48.816;9.420;2024-01-10T14:37:50;34.70;;;13.48;;
48791;SDS011;34587;48.816;9.420;2024-01-10T14:40:15;32.58;;;14.15;;
48791;SDS011;34587;48.816;9.420;2024-01-10T14:42:40;34.92;;;14.05;;
48791;SDS011;34587;48.816;9.420;2024-01-10T14:45:06;32.80;;;13.98;;
48791;SDS011;34587;48.816;9.420;2024-01-10T14:47:33;33.55;;;13.73;;
48791;SDS011;34587;48.816;9.420;2024-01-10T14:50:00;34.40;;;13.45;;
48791;SDS011;34587;48.816;9.420;2024-01-10T14:52:25;29.90;;;14.13;;
48791;SDS011;34587;48.816;9.420;2024-01-10T14:54:52;34.00;;;14.02;;
48791;SDS011;34587;48.816;9.420;2024-01-10T14:57:18;30.75;;;13.25;;
48791;SDS011;34587;48.816;9.420;2024-01-10T14:59:43;44.65;;;15.43;;
48791;SDS011;34587;48.816;9.420;2024-01-10T15:02:08;35.42;;;15.77;;
48791;SDS011;34587;48.816;9.420;2024-01-10T15:04:40;32.17;;;13.55;;
48791;SDS011;34587;48.816;9.420;2024-01-10T15:07:05;31.30;;;14.60;;
48791;SDS011;34587;48.816;9.420;2024-01-10T15:09:31;34.38;;;15.40;;
48791;SDS011;34587;48.816;9.420;2024-01-10T15:11:56;33.63;;;13.55;;
48791;SDS011;34587;48.816;9.420;2024-01-10T15:14:22;29.85;;;13.30;;
48791;SDS011;34587;48.816;9.420;2024-01-10T15:16:47;42.17;;;16.10;;
48791;SDS011;34587;48.816;9.420;2024-01-10T15:19:13;33.70;;;14.38;;
48791;SDS011;34587;48.816;9.420;2024-01-10T15:21:38;34.13;;;13.70;;
48791;SDS011;34587;48.816;9.420;2024-01-10T15:24:05;37.95;;;14.68;;
48791;SDS011;34587;48.816;9.420;2024-01-10T15:26:31;34.20;;;15.32;;
48791;SDS011;34587;48.816;9.420;2024-01-10T15:28:56;31.80;;;15.07;;
48791;SDS011;34587;48.816;9.420;2024-01-10T15:31:23;36.38;;;14.38;;
48791;SDS011;34587;48.816;9.420;2024-01-10T15:33:50;35.75;;;14.05;;
48791;SDS011;34587;48.816;9.420;2024-01-10T15:36:15;39.53;;;13.63;;
48791;SDS011;34587;48.816;9.420;2024-01-10T15:38:41;40.33;;;15.90;;
48791;SDS011;34587;48.816;9.420;2024-01-10T15:41:07;44.58;;;18.17;;
48791;SDS011;34587;48.816;9.420;2024-01-10T15:43:33;49.40;;;22.90;;
48791;SDS011;34587;48.816;9.420;2024-01-10T15:45:59;57.45;;;21.27;;
48791;SDS011;34587;48.816;9.420;2024-01-10T15:48:24;67.22;;;27.88;;
48791;SDS011;34587;48.816;9.420;2024-01-10T15:50:49;51.47;;;21.42;;
48791;SDS011;34587;48.816;9.420;2024-01-10T15:53:15;40.65;;;15.82;;
48791;SDS011;34587;48.816;9.420;2024-01-10T15:55:41;33.80;;;13.77;;
48791;SDS011;34587;48.816;9.420;2024-01-10T15:58:07;39.65;;;16.10;;
48791;SDS011;34587;48.816;9.420;2024-01-10T16:00:32;33.65;;;13.95;;
48791;SDS011;34587;48.816;9.420;2024-01-10T16:02:58;36.30;;;13.95;;
48791;SDS011;34587;48.816;9.420;2024-01-10T16:05:23;38.97;;;17.45;;
48791;SDS011;34587;48.816;9.420;2024-01-10T16:07:49;40.97;;;17.40;;
48791;SDS011;34587;48.816;9.420;2024-01-10T16:10:15;45.85;;;17.60;;
48791;SDS011;34587;48.816;9.420;2024-01-10T16:12:40;37.50;;;17.58;;
48791;SDS011;34587;48.816;9.420;2024-01-10T16:15:06;39.90;;;16.35;;
48791;SDS011;34587;48.816;9.420;2024-01-10T16:17:32;56.65;;;18.60;;
48791;SDS011;34587;48.816;9.420;2024-01-10T16:19:58;45.53;;;16.13;;
48791;SDS011;34587;48.816;9.420;2024-01-10T16:22:23;39.28;;;16.23;;
48791;SDS011;34587;48.816;9.420;2024-01-10T16:24:48;47.58;;;16.48;;
48791;SDS011;34587;48.816;9.420;2024-01-10T16:27:14;37.42;;;16.15;;
48791;SDS011;34587;48.816;9.420;2024-01-10T16:29:39;45.70;;;17.40;;
48791;SDS011;34587;48.816;9.420;2024-01-10T16:32:04;46.35;;;17.55;;
48791;SDS011;34587;48.816;9.420;2024-01-10T16:34:31;37.40;;;17.40;;
48791;SDS011;34587;48.816;9.420;2024-01-10T16:36:56;39.92;;;16.95;;
48791;SDS011;34587;48.816;9.420;2024-01-10T16:39:21;45.50;;;17.52;;
48791;SDS011;34587;48.816;9.420;2024-01-10T16:41:47;43.25;;;17.20;;
48791;SDS011;34587;48.816;9.420;2024-01-10T16:44:12;39.45;;;16.00;;
48791;SDS011;34587;48.816;9.420;2024-01-10T16:46:37;35.42;;;14.48;;
48791;SDS011;34587;48.816;9.420;2024-01-10T16:49:03;39.03;;;15.57;;
48791;SDS011;34587;48.816;9.420;2024-01-10T16:51:28;34.78;;;16.70;;
48791;SDS011;34587;48.816;9.420;2024-01-10T16:53:53;37.85;;;14.93;;
48791;SDS011;34587;48.816;9.420;2024-01-10T16:56:18;34.83;;;14.55;;
48791;SDS011;34587;48.816;9.420;2024-01-10T16:58:44;41.60;;;16.30;;
48791;SDS011;34587;48.816;9.420;2024-01-10T17:01:11;38.50;;;15.20;;
48791;SDS011;34587;48.816;9.420;2024-01-10T17:03:37;42.25;;;13.90;;
48791;SDS011;34587;48.816;9.420;2024-01-10T17:06:02;37.80;;;14.27;;
48791;SDS011;34587;48.816;9.420;2024-01-10T17:08:27;34.15;;;14.75;;
48791;SDS011;34587;48.816;9.420;2024-01-10T17:10:53;36.15;;;14.23;;
48791;SDS011;34587;48.816;9.420;2024-01-10T17:13:18;27.15;;;12.90;;
48791;SDS011;34587;48.816;9.420;2024-01-10T17:15:43;36.55;;;14.85;;
48791;SDS011;34587;48.816;9.420;2024-01-10T17:18:08;36.53;;;15.80;;
48791;SDS011;34587;48.816;9.420;2024-01-10T17:20:34;47.78;;;16.48;;
48791;SDS011;34587;48.816;9.420;2024-01-10T17:22:59;80.00;;;24.80;;
48791;SDS011;34587;48.816;9.420;2024-01-10T17:25:25;163.23;;;51.92;;
48791;SDS011;34587;48.816;9.420;2024-01-10T17:27:51;118.22;;;39.88;;
48791;SDS011;34587;48.816;9.420;2024-01-10T17:30:16;55.40;;;23.38;;
48791;SDS011;34587;48.816;9.420;2024-01-10T17:32:42;56.13;;;23.27;;
48791;SDS011;34587;48.816;9.420;2024-01-10T17:35:07;86.97;;;28.65;;
48791;SDS011;34587;48.816;9.420;2024-01-10T17:37:33;68.22;;;23.58;;
48791;SDS011;34587;48.816;9.420;2024-01-10T17:39:58;88.68;;;27.25;;
48791;SDS011;34587;48.816;9.420;2024-01-10T17:42:23;103.15;;;32.42;;
48791;SDS011;34587;48.816;9.420;2024-01-10T17:44:49;112.45;;;35.20;;
48791;SDS011;34587;48.816;9.420;2024-01-10T17:47:14;85.43;;;30.60;;
48791;SDS011;34587;48.816;9.420;2024-01-10T17:49:40;92.82;;;28.40;;
48791;SDS011;34587;48.816;9.420;2024-01-10T17:52:06;88.32;;;28.75;;
48791;SDS011;34587;48.816;9.420;2024-01-10T17:54:31;59.25;;;21.38;;
48791;SDS011;34587;48.816;9.420;2024-01-10T17:56:56;56.80;;;20.05;;
48791;SDS011;34587;48.816;9.420;2024-01-10T17:59:22;63.65;;;25.58;;
48791;SDS011;34587;48.816;9.420;2024-01-10T18:01:47;76.78;;;33.13;;
48791;SDS011;34587;48.816;9.420;2024-01-10T18:04:13;75.45;;;30.27;;
48791;SDS011;34587;48.816;9.420;2024-01-10T18:06:38;66.03;;;26.23;;
48791;SDS011;34587;48.816;9.420;2024-01-10T18:09:04;62.15;;;27.50;;
48791;SDS011;34587;48.816;9.420;2024-01-10T18:11:30;61.63;;;24.02;;
48791;SDS011;34587;48.816;9.420;2024-01-10T18:13:55;46.55;;;19.95;;
48791;SDS011;34587;48.816;9.420;2024-01-10T18:16:20;42.45;;;18.65;;
48791;SDS011;34587;48.816;9.420;2024-01-10T18:18:46;41.67;;;18.10;;
48791;SDS011;34587;48.816;9.420;2024-01-10T18:21:11;42.63;;;18.02;;
48791;SDS011;34587;48.816;9.420;2024-01-10T18:23:36;41.33;;;18.73;;
48791;SDS011;34587;48.816;9.420;2024-01-10T18:26:02;41.63;;;16.67;;
48791;SDS011;34587;48.816;9.420;2024-01-10T18:28:28;40.67;;;15.77;;
48791;SDS011;34587;48.816;9.420;2024-01-10T18:30:53;46.97;;;17.63;;
48791;SDS011;34587;48.816;9.420;2024-01-10T18:33:18;41.20;;;15.57;;
48791;SDS011;34587;48.816;9.420;2024-01-10T18:35:44;44.05;;;15.75;;
48791;SDS011;34587;48.816;9.420;2024-01-10T18:38:09;35.45;;;15.38;;
48791;SDS011;34587;48.816;9.420;2024-01-10T18:40:34;37.90;;;15.20;;
48791;SDS011;34587;48.816;9.420;2024-01-10T18:43:00;36.65;;;14.68;;
48791;SDS011;34587;48.816;9.420;2024-01-10T18:45:26;35.38;;;17.33;;
48791;SDS011;34587;48.816;9.420;2024-01-10T18:47:51;40.85;;;17.30;;
48791;SDS011;34587;48.816;9.420;2024-01-10T18:50:17;39.83;;;18.38;;
48791;SDS011;34587;48.816;9.420;2024-01-10T18:52:42;44.40;;;18.10;;
48791;SDS011;34587;48.816;9.420;2024-01-10T18:55:07;56.70;;;20.10;;